Time;durP1;ratioP1;P1;durP2;ratioP2;P2;SDS_P1;SDS_P2;PMS_P1;PMS_P2;Temp;Humidity;BMP_temperature;BMP_pressure;BME280_temperature;BME280_humidity;BME280_pressure;Samples;Min_cycle;Max_cycle;Signal;HPM_P1;HPM_P2
2022/07/06 00:01:15;;;;;;;3.15;1.67;;;;;;;;;;6128107;23;20061;-57
2022/07/06 00:03:42;;;;;;;2.53;1.55;;;;;;;;;;6119233;23;20024;-57
2022/07/06 00:06:09;;;;;;;1.88;1.40;;;;;;;;;;6122320;23;20258;-56
2022/07/06 00:08:35;;;;;;;4.05;1.30;;;;;;;;;;6139047;23;20037;-57
2022/07/06 00:11:03;;;;;;;2.40;1.10;;;;;;;;;;6122291;23;20017;-58
2022/07/06 00:13:30;;;;;;;1.88;1.20;;;;;;;;;;6145387;23;20338;-56
2022/07/06 00:15:56;;;;;;;1.55;1.13;;;;;;;;;;6129993;23;20013;-57
2022/07/06 00:18:23;;;;;;;2.08;1.20;;;;;;;;;;6143278;23;20049;-55
2022/07/06 00:20:49;;;;;;;4.18;1.60;;;;;;;;;;6133013;23;20076;-57
2022/07/06 00:23:16;;;;;;;3.25;1.23;;;;;;;;;;6137497;23;20017;-57
2022/07/06 00:25:42;;;;;;;3.53;1.73;;;;;;;;;;6106456;23;20087;-56
2022/07/06 00:28:10;;;;;;;2.65;2.08;;;;;;;;;;6131654;23;20013;-56
2022/07/06 00:30:36;;;;;;;3.22;1.70;;;;;;;;;;6142779;23;20476;-56
2022/07/06 00:33:03;;;;;;;2.30;1.65;;;;;;;;;;6130551;23;20017;-57
2022/07/06 00:35:29;;;;;;;2.25;1.70;;;;;;;;;;6135928;23;20018;-57
2022/07/06 00:37:56;;;;;;;7.50;1.67;;;;;;;;;;6144553;23;20021;-57
2022/07/06 00:40:22;;;;;;;1.75;1.63;;;;;;;;;;6124737;23;20037;-57
2022/07/06 00:42:49;;;;;;;1.30;1.20;;;;;;;;;;6142757;23;20017;-57
2022/07/06 00:45:17;;;;;;;3.60;1.80;;;;;;;;;;6126370;23;20080;-57
2022/07/06 00:47:44;;;;;;;2.30;1.63;;;;;;;;;;6135592;23;20013;-56
2022/07/06 00:50:14;;;;;;;4.32;2.33;;;;;;;;;;6128673;23;20021;-57
2022/07/06 00:52:42;;;;;;;4.00;2.45;;;;;;;;;;6136343;23;20017;-58
2022/07/06 00:55:08;;;;;;;3.47;2.15;;;;;;;;;;6144764;23;20032;-58
2022/07/06 00:57:35;;;;;;;2.85;1.75;;;;;;;;;;6141597;23;20014;-56
2022/07/06 01:00:02;;;;;;;3.55;1.73;;;;;;;;;;6132296;23;20309;-57
2022/07/06 01:02:31;;;;;;;6.07;1.80;;;;;;;;;;6146296;23;20014;-56
2022/07/06 01:04:57;;;;;;;3.30;1.83;;;;;;;;;;6126694;23;20021;-57
2022/07/06 01:07:24;;;;;;;5.43;1.75;;;;;;;;;;6140142;23;20020;-55
2022/07/06 01:09:50;;;;;;;3.47;1.95;;;;;;;;;;6129367;23;20049;-57
2022/07/06 01:12:17;;;;;;;4.55;2.25;;;;;;;;;;6139493;23;20017;-57
2022/07/06 01:14:44;;;;;;;3.47;1.60;;;;;;;;;;6130534;23;20162;-56
2022/07/06 01:17:11;;;;;;;3.20;2.25;;;;;;;;;;6143624;23;20018;-56
2022/07/06 01:19:39;;;;;;;2.33;1.90;;;;;;;;;;6136462;23;20515;-56
2022/07/06 01:22:12;;;;;;;2.30;2.03;;;;;;;;;;6116835;23;20102;-57
2022/07/06 01:24:39;;;;;;;2.78;2.38;;;;;;;;;;6140845;23;20081;-57
2022/07/06 01:27:06;;;;;;;3.35;2.97;;;;;;;;;;6131864;23;20014;-56
2022/07/06 01:29:33;;;;;;;7.22;2.25;;;;;;;;;;6133987;23;20028;-57
2022/07/06 01:32:00;;;;;;;4.20;2.53;;;;;;;;;;6126569;23;20022;-58
2022/07/06 01:34:26;;;;;;;7.75;2.10;;;;;;;;;;6094696;23;20013;-57
2022/07/06 01:36:53;;;;;;;4.43;2.95;;;;;;;;;;6098556;23;20394;-55
2022/07/06 01:39:21;;;;;;;3.42;2.45;;;;;;;;;;6109185;23;20018;-58
2022/07/06 01:41:47;;;;;;;3.78;2.85;;;;;;;;;;6110806;23;20032;-57
2022/07/06 01:44:14;;;;;;;3.30;2.60;;;;;;;;;;6116317;23;20553;-57
2022/07/06 01:46:40;;;;;;;4.88;3.00;;;;;;;;;;6109165;23;20080;-55
2022/07/06 01:49:07;;;;;;;6.65;3.53;;;;;;;;;;6111510;23;20535;-57
2022/07/06 01:51:33;;;;;;;6.10;3.08;;;;;;;;;;6103790;23;20502;-56
2022/07/06 01:54:00;;;;;;;6.32;3.72;;;;;;;;;;6116258;23;20013;-58
2022/07/06 01:56:28;;;;;;;7.18;3.10;;;;;;;;;;6078432;23;20828;-57
2022/07/06 01:58:54;;;;;;;5.28;3.47;;;;;;;;;;6122877;23;20013;-57
2022/07/06 02:01:21;;;;;;;4.70;2.85;;;;;;;;;;6101936;23;20053;-57
2022/07/06 02:03:48;;;;;;;3.50;2.67;;;;;;;;;;6114284;23;20037;-57
2022/07/06 02:06:14;;;;;;;4.88;3.47;;;;;;;;;;6109984;23;20364;-58
2022/07/06 02:08:42;;;;;;;7.22;4.63;;;;;;;;;;6112264;23;20215;-57
2022/07/06 02:11:09;;;;;;;4.25;3.45;;;;;;;;;;6103143;23;20399;-57
2022/07/06 02:13:37;;;;;;;9.63;4.28;;;;;;;;;;6113327;23;20181;-57
2022/07/06 02:16:04;;;;;;;4.55;3.00;;;;;;;;;;6099509;23;20116;-57
2022/07/06 02:18:31;;;;;;;6.10;4.00;;;;;;;;;;6115667;23;20061;-55
2022/07/06 02:20:58;;;;;;;4.65;3.42;;;;;;;;;;6106716;23;20049;-56
2022/07/06 02:23:25;;;;;;;5.78;3.72;;;;;;;;;;6076792;23;20695;-57
2022/07/06 02:25:52;;;;;;;6.78;4.53;;;;;;;;;;6115975;23;20023;-56
2022/07/06 02:28:18;;;;;;;7.57;4.35;;;;;;;;;;6105435;23;20013;-56
2022/07/06 02:30:47;;;;;;;4.60;3.50;;;;;;;;;;6093649;23;20017;-57
2022/07/06 02:33:14;;;;;;;6.45;3.58;;;;;;;;;;6111216;23;20025;-57
2022/07/06 02:35:42;;;;;;;4.32;3.03;;;;;;;;;;6112013;23;20013;-56
2022/07/06 02:38:09;;;;;;;6.40;3.55;;;;;;;;;;6111181;23;20013;-58
2022/07/06 02:40:36;;;;;;;8.60;3.30;;;;;;;;;;6119434;23;20013;-58
2022/07/06 02:43:03;;;;;;;3.35;3.05;;;;;;;;;;6112322;23;20021;-56
2022/07/06 02:45:30;;;;;;;4.65;2.60;;;;;;;;;;6089138;23;20049;-56
2022/07/06 02:47:57;;;;;;;4.30;2.67;;;;;;;;;;6107079;23;20021;-58
2022/07/06 02:50:24;;;;;;;8.20;3.17;;;;;;;;;;6091104;23;20487;-58
2022/07/06 02:52:52;;;;;;;3.33;2.45;;;;;;;;;;6107975;23;20203;-57
2022/07/06 02:55:18;;;;;;;4.65;2.90;;;;;;;;;;6117535;23;20025;-58
2022/07/06 02:57:45;;;;;;;3.17;2.72;;;;;;;;;;6107465;23;20072;-58
2022/07/06 03:00:11;;;;;;;3.40;2.67;;;;;;;;;;6105416;23;20017;-57
2022/07/06 03:02:38;;;;;;;3.80;2.95;;;;;;;;;;6123969;23;20033;-56
2022/07/06 03:05:07;;;;;;;6.97;3.17;;;;;;;;;;6124221;23;20048;-57
2022/07/06 03:07:36;;;;;;;5.80;2.70;;;;;;;;;;6114361;23;20013;-57
2022/07/06 03:10:02;;;;;;;7.20;3.22;;;;;;;;;;6119762;23;20120;-57
2022/07/06 03:12:29;;;;;;;7.50;2.58;;;;;;;;;;6114568;23;20013;-56
2022/07/06 03:14:55;;;;;;;5.78;3.40;;;;;;;;;;6109689;23;20531;-58
2022/07/06 03:17:22;;;;;;;5.65;2.80;;;;;;;;;;6113943;23;20076;-56
2022/07/06 03:19:48;;;;;;;5.40;3.15;;;;;;;;;;6116544;23;20013;-57
2022/07/06 03:22:16;;;;;;;2.65;2.30;;;;;;;;;;6101626;23;20052;-57
2022/07/06 03:24:43;;;;;;;3.70;3.00;;;;;;;;;;6111958;23;20080;-56
2022/07/06 03:27:10;;;;;;;5.65;3.60;;;;;;;;;;6131552;23;20385;-56
2022/07/06 03:29:36;;;;;;;4.80;3.10;;;;;;;;;;6120647;23;20596;-58
2022/07/06 03:32:03;;;;;;;4.20;2.92;;;;;;;;;;6130849;23;20021;-57
2022/07/06 03:34:30;;;;;;;2.85;2.30;;;;;;;;;;6132096;23;20044;-58
2022/07/06 03:36:56;;;;;;;3.70;2.70;;;;;;;;;;6134585;23;20024;-57
2022/07/06 03:39:24;;;;;;;4.57;2.30;;;;;;;;;;6139047;23;20014;-58
2022/07/06 03:41:51;;;;;;;4.70;2.40;;;;;;;;;;6139001;23;20076;-57
2022/07/06 03:44:17;;;;;;;3.55;2.78;;;;;;;;;;6121548;23;20087;-57
2022/07/06 03:46:44;;;;;;;2.80;2.42;;;;;;;;;;6140365;23;20017;-57
2022/07/06 03:49:12;;;;;;;4.07;2.33;;;;;;;;;;6146281;23;20064;-56
2022/07/06 03:51:40;;;;;;;2.50;1.97;;;;;;;;;;6136486;23;20013;-55
2022/07/06 03:54:06;;;;;;;4.93;2.83;;;;;;;;;;6145860;23;20014;-57
2022/07/06 03:56:34;;;;;;;4.13;2.60;;;;;;;;;;6132128;23;20021;-56
2022/07/06 03:59:01;;;;;;;5.45;2.95;;;;;;;;;;6143233;23;20044;-56
2022/07/06 04:01:29;;;;;;;7.32;2.72;;;;;;;;;;6132348;23;20029;-56
2022/07/06 04:03:56;;;;;;;4.72;2.50;;;;;;;;;;6143976;23;20014;-56
2022/07/06 04:06:22;;;;;;;7.35;2.97;;;;;;;;;;6136500;23;20057;-56
2022/07/06 04:08:49;;;;;;;4.15;2.08;;;;;;;;;;6144432;23;20013;-57
2022/07/06 04:11:15;;;;;;;5.47;2.90;;;;;;;;;;6135083;23;20400;-57
2022/07/06 04:13:43;;;;;;;4.20;2.85;;;;;;;;;;6117195;23;20013;-55
2022/07/06 04:16:10;;;;;;;6.40;2.92;;;;;;;;;;6138811;23;20009;-56
2022/07/06 04:18:36;;;;;;;3.15;2.65;;;;;;;;;;6141595;23;20009;-57
2022/07/06 04:21:03;;;;;;;3.55;2.47;;;;;;;;;;6127201;23;20083;-56
2022/07/06 04:23:29;;;;;;;4.88;2.45;;;;;;;;;;6141768;23;20009;-56
2022/07/06 04:25:56;;;;;;;3.38;2.65;;;;;;;;;;6133741;23;20017;-57
2022/07/06 04:28:22;;;;;;;4.18;3.13;;;;;;;;;;6143900;23;20041;-57
2022/07/06 04:30:50;;;;;;;6.10;3.13;;;;;;;;;;6131087;23;20507;-55
2022/07/06 04:33:17;;;;;;;4.75;2.90;;;;;;;;;;6124845;23;20018;-56
2022/07/06 04:35:43;;;;;;;4.00;2.17;;;;;;;;;;6136499;23;20018;-57
2022/07/06 04:38:10;;;;;;;3.30;2.53;;;;;;;;;;6143217;23;20013;-57
2022/07/06 04:40:36;;;;;;;4.22;2.45;;;;;;;;;;6133820;23;20028;-58
2022/07/06 04:43:03;;;;;;;4.72;2.53;;;;;;;;;;6143298;23;20600;-55
2022/07/06 04:45:33;;;;;;;3.58;2.30;;;;;;;;;;6111091;23;20530;-57
2022/07/06 04:48:01;;;;;;;6.97;3.08;;;;;;;;;;6141237;23;20024;-57
2022/07/06 04:50:27;;;;;;;5.75;2.80;;;;;;;;;;6143605;23;20021;-54
2022/07/06 04:52:54;;;;;;;3.10;2.30;;;;;;;;;;6143076;23;20017;-56
2022/07/06 04:55:22;;;;;;;4.07;2.70;;;;;;;;;;6136734;23;20088;-57
2022/07/06 04:57:48;;;;;;;4.72;2.40;;;;;;;;;;6145957;23;20448;-56
2022/07/06 05:00:15;;;;;;;3.08;2.20;;;;;;;;;;6136809;23;20020;-57
2022/07/06 05:02:42;;;;;;;5.80;2.88;;;;;;;;;;6117584;23;20045;-55
2022/07/06 05:05:10;;;;;;;3.83;2.60;;;;;;;;;;6108339;23;20032;-57
2022/07/06 05:07:39;;;;;;;3.50;2.80;;;;;;;;;;6140452;23;20064;-57
2022/07/06 05:10:06;;;;;;;4.60;2.28;;;;;;;;;;6140218;23;20033;-57
2022/07/06 05:12:33;;;;;;;6.20;2.40;;;;;;;;;;6139552;23;20040;-57
2022/07/06 05:14:59;;;;;;;3.55;2.47;;;;;;;;;;6133062;23;20017;-58
2022/07/06 05:17:26;;;;;;;2.90;2.10;;;;;;;;;;6145603;23;20084;-57
2022/07/06 05:19:52;;;;;;;3.42;2.60;;;;;;;;;;6132965;23;20440;-57
2022/07/06 05:22:20;;;;;;;3.47;2.60;;;;;;;;;;6145271;23;20036;-56
2022/07/06 05:24:47;;;;;;;6.28;3.17;;;;;;;;;;6136655;23;20024;-57
2022/07/06 05:27:13;;;;;;;3.13;2.70;;;;;;;;;;6147353;23;20018;-55
2022/07/06 05:29:40;;;;;;;4.65;2.53;;;;;;;;;;6137038;23;20887;-57
2022/07/06 05:32:07;;;;;;;3.22;2.65;;;;;;;;;;6116225;23;20440;-57
2022/07/06 05:34:33;;;;;;;4.70;2.38;;;;;;;;;;6144658;23;20017;-55
2022/07/06 05:37:00;;;;;;;9.57;3.05;;;;;;;;;;6109102;23;20018;-55
2022/07/06 05:39:28;;;;;;;4.95;3.28;;;;;;;;;;6144173;23;20021;-56
2022/07/06 05:41:54;;;;;;;4.78;3.05;;;;;;;;;;6115322;23;20048;-57
2022/07/06 05:44:21;;;;;;;4.45;3.33;;;;;;;;;;6143522;23;20013;-56
2022/07/06 05:46:47;;;;;;;5.80;3.20;;;;;;;;;;6138047;23;20480;-57
2022/07/06 05:51:58;;;;;;;5.65;3.90;;;;;;;;;;6137179;23;20017;-56
2022/07/06 05:54:24;;;;;;;4.93;3.20;;;;;;;;;;6123393;23;20702;-56
2022/07/06 05:56:52;;;;;;;4.20;3.63;;;;;;;;;;6135748;23;20044;-57
2022/07/06 05:59:19;;;;;;;5.78;3.55;;;;;;;;;;6145714;23;20013;-55
2022/07/06 06:01:45;;;;;;;6.03;4.40;;;;;;;;;;6130271;23;20040;-57
2022/07/06 06:04:12;;;;;;;4.47;3.28;;;;;;;;;;6147794;23;20013;-57
2022/07/06 06:06:38;;;;;;;6.13;4.22;;;;;;;;;;6136558;23;20028;-56
2022/07/06 06:09:05;;;;;;;5.82;3.67;;;;;;;;;;6135703;23;20073;-55
2022/07/06 06:11:31;;;;;;;5.95;4.05;;;;;;;;;;6132031;23;20018;-55
2022/07/06 06:13:59;;;;;;;14.75;3.80;;;;;;;;;;6113616;23;20028;-56
2022/07/06 06:16:26;;;;;;;4.25;3.85;;;;;;;;;;6140466;23;20017;-56
2022/07/06 06:18:52;;;;;;;4.35;3.45;;;;;;;;;;6148872;23;20536;-55
2022/07/06 06:21:19;;;;;;;6.45;3.78;;;;;;;;;;6134783;23;20400;-58
2022/07/06 06:23:45;;;;;;;3.92;2.88;;;;;;;;;;6141663;23;20049;-56
2022/07/06 06:26:13;;;;;;;6.00;3.03;;;;;;;;;;6146302;23;20041;-57
2022/07/06 06:28:41;;;;;;;5.32;3.75;;;;;;;;;;6143261;23;20010;-56
2022/07/06 06:31:09;;;;;;;8.13;4.05;;;;;;;;;;6117965;23;20045;-57
2022/07/06 06:33:35;;;;;;;4.70;3.33;;;;;;;;;;6118102;23;20072;-56
2022/07/06 06:36:04;;;;;;;5.05;3.17;;;;;;;;;;6042525;23;20081;-56
2022/07/06 06:38:31;;;;;;;4.85;2.90;;;;;;;;;;6135344;23;20743;-58
2022/07/06 06:40:58;;;;;;;9.90;3.78;;;;;;;;;;6143957;23;20330;-56
2022/07/06 06:43:25;;;;;;;5.65;3.45;;;;;;;;;;6141269;23;20032;-57
2022/07/06 06:45:51;;;;;;;4.40;3.25;;;;;;;;;;6143432;23;20018;-56
2022/07/06 06:48:19;;;;;;;7.85;3.25;;;;;;;;;;6137515;23;20017;-57
2022/07/06 06:50:46;;;;;;;4.65;3.88;;;;;;;;;;6140376;23;20077;-57
2022/07/06 06:53:12;;;;;;;4.85;3.63;;;;;;;;;;6141202;23;20014;-57
2022/07/06 06:55:39;;;;;;;9.25;4.22;;;;;;;;;;6130070;23;20017;-57
2022/07/06 06:58:06;;;;;;;9.73;3.88;;;;;;;;;;6145497;23;20022;-57
2022/07/06 07:00:33;;;;;;;18.52;4.35;;;;;;;;;;6135371;23;20018;-57
2022/07/06 07:02:59;;;;;;;11.23;4.50;;;;;;;;;;6143538;23;20056;-56
2022/07/06 07:05:27;;;;;;;8.52;4.13;;;;;;;;;;6139543;23;20041;-56
2022/07/06 07:07:58;;;;;;;6.20;3.28;;;;;;;;;;6143594;23;20017;-57
2022/07/06 07:10:25;;;;;;;9.98;4.10;;;;;;;;;;6115166;23;20045;-57
2022/07/06 07:12:51;;;;;;;8.57;4.30;;;;;;;;;;6145200;23;20014;-55
2022/07/06 07:15:18;;;;;;;7.65;4.13;;;;;;;;;;6126357;23;20013;-57
2022/07/06 07:17:44;;;;;;;6.25;4.00;;;;;;;;;;6115711;23;20017;-56
2022/07/06 07:20:12;;;;;;;10.23;3.90;;;;;;;;;;6111774;23;20025;-57
2022/07/06 07:22:40;;;;;;;7.68;4.32;;;;;;;;;;6118648;23;20081;-57
2022/07/06 07:25:07;;;;;;;8.10;3.78;;;;;;;;;;6130527;23;20017;-56
2022/07/06 07:27:34;;;;;;;5.22;4.07;;;;;;;;;;6145732;23;20084;-57
2022/07/06 07:30:00;;;;;;;8.60;5.35;;;;;;;;;;6127872;23;20021;-57
2022/07/06 07:32:27;;;;;;;8.82;3.92;;;;;;;;;;6141670;23;20017;-57
2022/07/06 07:34:53;;;;;;;8.68;4.20;;;;;;;;;;6141884;23;20024;-57
2022/07/06 07:37:20;;;;;;;7.68;3.38;;;;;;;;;;6143767;23;20018;-57
2022/07/06 07:39:48;;;;;;;7.68;3.97;;;;;;;;;;6137466;23;20446;-57
2022/07/06 07:42:14;;;;;;;6.65;3.60;;;;;;;;;;6114935;23;20093;-57
2022/07/06 07:44:41;;;;;;;6.00;3.08;;;;;;;;;;6139273;23;20336;-57
2022/07/06 07:47:07;;;;;;;5.63;2.85;;;;;;;;;;6135967;23;20523;-57
2022/07/06 07:49:34;;;;;;;7.85;3.10;;;;;;;;;;6141831;23;20021;-57
2022/07/06 07:52:00;;;;;;;8.70;3.90;;;;;;;;;;6140831;23;20017;-57
2022/07/06 07:54:27;;;;;;;3.97;3.10;;;;;;;;;;6144251;23;20014;-57
2022/07/06 07:56:55;;;;;;;7.03;3.63;;;;;;;;;;6108837;23;20472;-57
2022/07/06 07:59:22;;;;;;;4.65;3.17;;;;;;;;;;6145656;23;20013;-58
2022/07/06 08:01:48;;;;;;;3.70;2.90;;;;;;;;;;6139377;23;20017;-57
2022/07/06 08:04:15;;;;;;;7.25;3.30;;;;;;;;;;6148089;23;20025;-58
2022/07/06 08:06:41;;;;;;;3.95;3.05;;;;;;;;;;6059896;23;20022;-56
2022/07/06 08:09:08;;;;;;;7.03;3.50;;;;;;;;;;6138088;23;20064;-56
2022/07/06 08:11:34;;;;;;;4.03;2.90;;;;;;;;;;6126605;23;20489;-58
2022/07/06 08:14:02;;;;;;;4.47;2.90;;;;;;;;;;6134600;23;20037;-57
2022/07/06 08:16:29;;;;;;;5.57;3.05;;;;;;;;;;6122649;23;20560;-57
2022/07/06 08:18:56;;;;;;;3.22;2.17;;;;;;;;;;6133955;23;20017;-57
2022/07/06 08:21:22;;;;;;;4.78;2.25;;;;;;;;;;6137026;23;20038;-57
2022/07/06 08:23:49;;;;;;;3.22;2.28;;;;;;;;;;6118558;23;20021;-57
2022/07/06 08:26:15;;;;;;;2.67;2.30;;;;;;;;;;6138292;23;20045;-58
2022/07/06 08:28:42;;;;;;;3.33;2.22;;;;;;;;;;6128249;23;20013;-57
2022/07/06 08:31:10;;;;;;;5.07;2.30;;;;;;;;;;6135647;23;20037;-56
2022/07/06 08:33:36;;;;;;;5.15;2.15;;;;;;;;;;6142152;23;20085;-56
2022/07/06 08:36:03;;;;;;;5.53;2.75;;;;;;;;;;6130647;23;20014;-57
2022/07/06 08:38:29;;;;;;;4.55;2.20;;;;;;;;;;6114568;23;20021;-57
2022/07/06 08:40:56;;;;;;;2.75;1.90;;;;;;;;;;6135684;23;20021;-56
2022/07/06 08:43:23;;;;;;;3.53;1.65;;;;;;;;;;6137196;23;20025;-57
2022/07/06 08:45:51;;;;;;;1.60;1.50;;;;;;;;;;6099660;23;20021;-57
2022/07/06 08:48:19;;;;;;;2.35;1.83;;;;;;;;;;6118640;23;20013;-56
2022/07/06 08:50:46;;;;;;;3.38;1.90;;;;;;;;;;6133380;23;20108;-57
2022/07/06 08:53:12;;;;;;;2.53;1.75;;;;;;;;;;6145637;23;20046;-57
2022/07/06 08:55:40;;;;;;;4.05;2.28;;;;;;;;;;6133907;23;20393;-56
2022/07/06 08:58:08;;;;;;;2.00;1.80;;;;;;;;;;6145018;23;20013;-57
2022/07/06 09:00:34;;;;;;;2.25;2.00;;;;;;;;;;6137299;23;20013;-57
2022/07/06 09:03:01;;;;;;;2.30;1.58;;;;;;;;;;6140602;23;20022;-57
2022/07/06 09:05:29;;;;;;;2.78;1.90;;;;;;;;;;6134473;23;20022;-57
2022/07/06 09:07:56;;;;;;;2.20;1.83;;;;;;;;;;6139302;23;20088;-57
2022/07/06 09:10:23;;;;;;;4.47;1.77;;;;;;;;;;6137641;23;20013;-55
2022/07/06 09:12:49;;;;;;;2.35;1.67;;;;;;;;;;6135151;23;20020;-57
2022/07/06 09:15:16;;;;;;;3.28;1.73;;;;;;;;;;6140391;23;20019;-56
2022/07/06 09:17:43;;;;;;;2.10;1.58;;;;;;;;;;6145462;23;20013;-57
2022/07/06 09:20:10;;;;;;;3.30;1.75;;;;;;;;;;6130924;23;20018;-57
2022/07/06 09:22:38;;;;;;;3.88;1.55;;;;;;;;;;6137970;23;20471;-56
2022/07/06 09:25:05;;;;;;;1.88;1.75;;;;;;;;;;6128540;23;20249;-57
2022/07/06 09:27:32;;;;;;;2.53;1.48;;;;;;;;;;6144029;23;20014;-56
2022/07/06 09:30:00;;;;;;;1.52;1.17;;;;;;;;;;6122886;23;20018;-54
2022/07/06 09:32:27;;;;;;;2.92;1.85;;;;;;;;;;6139973;23;20608;-57
2022/07/06 09:34:54;;;;;;;2.88;1.30;;;;;;;;;;6135507;23;20072;-55
2022/07/06 09:37:22;;;;;;;2.08;1.63;;;;;;;;;;6139459;23;20041;-57
2022/07/06 09:39:50;;;;;;;1.27;1.17;;;;;;;;;;6129887;23;20018;-56
2022/07/06 09:42:24;;;;;;;1.42;1.33;;;;;;;;;;6143399;23;20072;-57
2022/07/06 09:44:51;;;;;;;2.65;1.33;;;;;;;;;;6141164;23;20029;-57
2022/07/06 09:47:18;;;;;;;2.72;1.63;;;;;;;;;;6130015;23;20511;-57
2022/07/06 09:49:47;;;;;;;1.42;1.33;;;;;;;;;;6114795;23;20564;-57
2022/07/06 09:52:14;;;;;;;2.72;1.40;;;;;;;;;;6130025;23;20009;-57
2022/07/06 09:54:41;;;;;;;3.10;1.63;;;;;;;;;;6142584;23;20037;-57
2022/07/06 09:57:09;;;;;;;2.80;1.30;;;;;;;;;;6135833;23;20014;-57
2022/07/06 09:59:37;;;;;;;3.20;1.70;;;;;;;;;;6136415;23;20431;-56
2022/07/06 10:02:05;;;;;;;2.20;1.67;;;;;;;;;;6136084;23;20056;-57
2022/07/06 10:04:32;;;;;;;3.42;1.80;;;;;;;;;;6133930;23;20021;-57
2022/07/06 10:06:59;;;;;;;2.00;1.60;;;;;;;;;;6137464;23;20535;-56
2022/07/06 10:09:26;;;;;;;4.70;1.92;;;;;;;;;;6135861;23;20075;-58
2022/07/06 10:11:54;;;;;;;2.33;1.60;;;;;;;;;;6121962;23;20168;-57
2022/07/06 10:14:23;;;;;;;1.75;1.42;;;;;;;;;;6139694;23;20013;-57
2022/07/06 10:16:49;;;;;;;2.08;1.20;;;;;;;;;;6125912;23;20018;-57
2022/07/06 10:19:17;;;;;;;2.63;1.45;;;;;;;;;;6137533;23;20025;-57
2022/07/06 10:21:44;;;;;;;2.40;1.23;;;;;;;;;;6119017;23;20061;-58
2022/07/06 10:24:12;;;;;;;1.98;1.35;;;;;;;;;;6136695;23;20499;-58
2022/07/06 10:26:38;;;;;;;3.88;1.67;;;;;;;;;;6112754;23;20013;-57
2022/07/06 10:29:06;;;;;;;1.50;1.33;;;;;;;;;;6129586;23;20017;-58
2022/07/06 10:31:35;;;;;;;7.22;1.35;;;;;;;;;;6136013;23;20077;-57
2022/07/06 10:34:02;;;;;;;2.28;1.80;;;;;;;;;;6143888;23;20455;-59
2022/07/06 10:36:29;;;;;;;2.15;1.48;;;;;;;;;;6143436;23;20045;-58
2022/07/06 10:38:56;;;;;;;1.38;1.10;;;;;;;;;;6126835;23;20402;-58
2022/07/06 10:41:30;;;;;;;5.38;1.10;;;;;;;;;;6130907;23;20018;-58
2022/07/06 10:43:58;;;;;;;1.55;1.20;;;;;;;;;;6132116;23;20025;-57
2022/07/06 10:46:28;;;;;;;1.23;1.08;;;;;;;;;;6145382;23;20040;-57
2022/07/06 10:48:57;;;;;;;1.30;1.20;;;;;;;;;;6129322;23;20061;-58
2022/07/06 10:51:24;;;;;;;1.40;1.30;;;;;;;;;;6140875;23;20072;-58
2022/07/06 10:53:56;;;;;;;1.67;1.10;;;;;;;;;;6134433;23;20017;-58
2022/07/06 10:56:33;;;;;;;1.23;1.10;;;;;;;;;;6140131;23;20042;-58
2022/07/06 10:59:02;;;;;;;1.33;1.00;;;;;;;;;;6126051;23;20040;-57
2022/07/06 11:01:29;;;;;;;1.15;0.90;;;;;;;;;;6140527;23;20013;-57
2022/07/06 11:04:07;;;;;;;0.95;0.85;;;;;;;;;;6137595;23;20021;-57
2022/07/06 11:06:34;;;;;;;2.53;0.77;;;;;;;;;;6136226;23;20013;-58
2022/07/06 11:09:01;;;;;;;2.42;0.75;;;;;;;;;;6124539;23;20083;-58
2022/07/06 11:11:38;;;;;;;2.25;0.88;;;;;;;;;;6142057;23;20024;-56
2022/07/06 11:14:06;;;;;;;2.50;1.67;;;;;;;;;;6139817;23;20017;-58
2022/07/06 11:16:36;;;;;;;1.08;0.95;;;;;;;;;;6142258;23;20524;-57
2022/07/06 11:19:09;;;;;;;2.28;0.82;;;;;;;;;;6144020;23;20014;-58
2022/07/06 11:21:40;;;;;;;1.15;0.70;;;;;;;;;;6138678;23;20021;-58
2022/07/06 11:24:07;;;;;;;1.45;0.88;;;;;;;;;;6135414;23;20021;-58
2022/07/06 11:26:36;;;;;;;0.85;0.73;;;;;;;;;;6118201;23;20014;-57
2022/07/06 11:29:04;;;;;;;0.95;0.85;;;;;;;;;;6140092;23;20014;-57
2022/07/06 11:31:30;;;;;;;1.60;0.80;;;;;;;;;;6123528;23;20013;-57
2022/07/06 11:33:57;;;;;;;0.88;0.88;;;;;;;;;;6134982;23;20072;-57
2022/07/06 11:36:25;;;;;;;2.10;0.95;;;;;;;;;;6123810;23;20014;-58
2022/07/06 11:38:51;;;;;;;1.10;1.00;;;;;;;;;;6129723;23;20435;-59
2022/07/06 11:41:18;;;;;;;1.10;0.98;;;;;;;;;;6143259;23;20025;-58
2022/07/06 11:43:45;;;;;;;0.75;0.75;;;;;;;;;;6134899;23;20061;-58
2022/07/06 11:46:25;;;;;;;1.27;1.17;;;;;;;;;;6137741;23;20074;-58
2022/07/06 11:48:52;;;;;;;1.38;0.77;;;;;;;;;;6125945;23;20017;-56
2022/07/06 11:51:19;;;;;;;1.73;0.70;;;;;;;;;;6133852;23;20020;-58
2022/07/06 11:53:47;;;;;;;1.33;0.60;;;;;;;;;;6138194;23;20404;-57
2022/07/06 11:56:15;;;;;;;1.10;0.75;;;;;;;;;;6142639;23;20054;-57
2022/07/06 11:58:43;;;;;;;1.27;0.70;;;;;;;;;;6132212;23;20017;-58
2022/07/06 12:01:11;;;;;;;1.17;1.07;;;;;;;;;;6142199;23;20069;-56
2022/07/06 12:03:38;;;;;;;0.60;0.60;;;;;;;;;;6128824;23;22555;-58
2022/07/06 12:06:05;;;;;;;0.63;0.60;;;;;;;;;;6132143;23;20025;-58
2022/07/06 12:08:33;;;;;;;0.70;0.70;;;;;;;;;;6128152;23;20014;-55
2022/07/06 12:11:01;;;;;;;1.30;0.80;;;;;;;;;;6145952;23;20017;-57
2022/07/06 12:13:27;;;;;;;1.98;1.00;;;;;;;;;;6137150;23;20529;-58
2022/07/06 12:15:54;;;;;;;1.17;0.68;;;;;;;;;;6139592;23;20013;-55
2022/07/06 12:18:20;;;;;;;2.65;0.70;;;;;;;;;;6101531;23;20080;-55
2022/07/06 12:20:47;;;;;;;0.65;0.50;;;;;;;;;;6143535;23;20200;-56
2022/07/06 12:23:15;;;;;;;1.95;0.70;;;;;;;;;;6113155;23;20448;-56
2022/07/06 12:25:42;;;;;;;0.70;0.60;;;;;;;;;;6082442;23;20082;-58
2022/07/06 12:28:22;;;;;;;0.70;0.65;;;;;;;;;;6130640;23;20017;-56
2022/07/06 12:30:48;;;;;;;1.08;0.50;;;;;;;;;;6135112;23;20075;-57
2022/07/06 12:33:15;;;;;;;0.50;0.40;;;;;;;;;;6138998;23;20854;-57
2022/07/06 12:35:42;;;;;;;1.85;0.70;;;;;;;;;;6115293;23;20028;-58
2022/07/06 12:38:08;;;;;;;1.67;0.95;;;;;;;;;;6142196;23;20021;-58
2022/07/06 12:40:36;;;;;;;0.68;0.57;;;;;;;;;;6107002;23;20021;-58
2022/07/06 12:43:03;;;;;;;1.77;0.70;;;;;;;;;;6138203;23;20586;-58
2022/07/06 12:45:32;;;;;;;1.75;0.70;;;;;;;;;;6132864;23;20765;-58
2022/07/06 12:47:59;;;;;;;0.53;0.40;;;;;;;;;;6103874;23;20060;-58
2022/07/06 12:50:32;;;;;;;0.70;0.60;;;;;;;;;;6128347;23;20081;-57
2022/07/06 12:52:59;;;;;;;1.77;0.73;;;;;;;;;;6141858;23;20018;-57
2022/07/06 12:55:27;;;;;;;1.63;0.50;;;;;;;;;;6105548;23;20033;-58
2022/07/06 12:57:53;;;;;;;1.42;0.95;;;;;;;;;;6138011;23;20025;-57
2022/07/06 13:00:21;;;;;;;1.10;0.63;;;;;;;;;;6113312;23;20105;-57
2022/07/06 13:02:53;;;;;;;4.65;0.75;;;;;;;;;;6135321;23;20022;-58
2022/07/06 13:05:27;;;;;;;1.38;0.70;;;;;;;;;;6137451;23;20428;-57
2022/07/06 13:07:54;;;;;;;2.80;0.60;;;;;;;;;;6134911;23;20033;-58
2022/07/06 13:10:21;;;;;;;1.15;0.70;;;;;;;;;;6132000;23;20064;-58
2022/07/06 13:12:47;;;;;;;1.17;0.55;;;;;;;;;;6131108;23;20027;-57
2022/07/06 13:15:14;;;;;;;1.35;0.63;;;;;;;;;;6139092;23;20029;-58
2022/07/06 13:17:40;;;;;;;0.77;0.77;;;;;;;;;;6145267;23;20013;-57
2022/07/06 13:20:09;;;;;;;1.95;0.60;;;;;;;;;;6130855;23;20037;-58
2022/07/06 13:22:36;;;;;;;0.63;0.60;;;;;;;;;;6124165;23;20060;-58
2022/07/06 13:25:02;;;;;;;0.50;0.50;;;;;;;;;;6111445;23;20068;-57
2022/07/06 13:27:29;;;;;;;0.70;0.70;;;;;;;;;;6132022;23;20021;-58
2022/07/06 13:29:55;;;;;;;0.65;0.60;;;;;;;;;;6136177;23;20024;-57
2022/07/06 13:32:22;;;;;;;1.08;0.60;;;;;;;;;;6138527;23;20021;-57
2022/07/06 13:34:48;;;;;;;0.60;0.60;;;;;;;;;;6135880;23;20650;-57
2022/07/06 13:37:17;;;;;;;3.30;0.65;;;;;;;;;;6123958;23;20344;-57
2022/07/06 13:39:43;;;;;;;0.60;0.60;;;;;;;;;;6138941;23;20014;-58
2022/07/06 13:42:09;;;;;;;2.22;0.88;;;;;;;;;;6141656;23;20014;-58
2022/07/06 13:44:36;;;;;;;1.10;0.50;;;;;;;;;;6130826;23;20022;-58
2022/07/06 13:47:02;;;;;;;1.20;0.52;;;;;;;;;;6143708;23;20053;-59
2022/07/06 13:49:29;;;;;;;2.03;0.80;;;;;;;;;;6136103;23;20017;-56
2022/07/06 13:52:02;;;;;;;0.45;0.45;;;;;;;;;;6139107;23;20021;-57
2022/07/06 13:54:29;;;;;;;0.75;0.75;;;;;;;;;;6140211;23;20040;-57
2022/07/06 13:56:56;;;;;;;0.75;0.75;;;;;;;;;;6135341;23;20025;-58
2022/07/06 13:59:22;;;;;;;0.80;0.70;;;;;;;;;;6144218;23;20014;-58
2022/07/06 14:01:49;;;;;;;1.52;0.90;;;;;;;;;;6132182;23;20025;-57
2022/07/06 14:04:15;;;;;;;2.13;0.40;;;;;;;;;;6118451;23;20049;-58
2022/07/06 14:06:42;;;;;;;0.77;0.50;;;;;;;;;;6132463;23;20060;-58
2022/07/06 14:09:08;;;;;;;2.50;0.90;;;;;;;;;;6139015;23;20025;-57
2022/07/06 14:11:36;;;;;;;2.83;0.68;;;;;;;;;;6124308;23;20023;-58
2022/07/06 14:14:06;;;;;;;0.82;0.68;;;;;;;;;;6141371;23;20024;-58
2022/07/06 14:16:34;;;;;;;0.75;0.50;;;;;;;;;;6133587;23;20021;-59
2022/07/06 14:19:00;;;;;;;1.52;0.70;;;;;;;;;;6141648;23;20044;-58
2022/07/06 14:21:27;;;;;;;1.15;0.60;;;;;;;;;;6133685;23;20073;-58
2022/07/06 14:23:53;;;;;;;0.60;0.60;;;;;;;;;;6139191;23;20032;-58
2022/07/06 14:26:20;;;;;;;3.13;0.90;;;;;;;;;;6134608;23;20021;-58
2022/07/06 14:28:47;;;;;;;1.38;0.85;;;;;;;;;;6142304;23;20017;-58
2022/07/06 14:31:14;;;;;;;0.70;0.68;;;;;;;;;;6128520;23;20091;-57
2022/07/06 14:33:40;;;;;;;0.65;0.60;;;;;;;;;;6145000;23;20036;-58
2022/07/06 14:36:07;;;;;;;1.00;0.60;;;;;;;;;;6138323;23;20013;-58
2022/07/06 14:38:34;;;;;;;1.25;0.47;;;;;;;;;;6135560;23;20021;-55
2022/07/06 14:41:01;;;;;;;0.38;0.38;;;;;;;;;;6138104;23;20029;-58
2022/07/06 14:43:28;;;;;;;0.60;0.60;;;;;;;;;;6143739;23;20018;-59
2022/07/06 14:45:55;;;;;;;0.50;0.43;;;;;;;;;;6130920;23;20021;-56